Time;durP1;ratioP1;P1;durP2;ratioP2;P2;SDS_P1;SDS_P2;PMS_P1;PMS_P2;Temp;Humidity;BMP_temperature;BMP_pressure;BME280_temperature;BME280_humidity;BME280_pressure;Samples;Min_cycle;Max_cycle;Signal;HPM_P1;HPM_P2
2022/10/29 00:00:52;;;;;;;22.00;5.78;;;12.40;99.90;;;;;;5077198;28;20044;-71
2022/10/29 00:03:20;;;;;;;15.32;5.55;;;12.50;99.90;;;;;;5077289;28;20025;-71
2022/10/29 00:06:03;;;;;;;24.35;6.53;;;12.60;99.90;;;;;;5077322;28;20408;-71
2022/10/29 00:08:31;;;;;;;19.05;7.05;;;12.70;99.90;;;;;;5076230;28;20027;-71
2022/10/29 00:11:20;;;;;;;14.00;5.28;;;12.80;99.90;;;;;;5070055;28;20020;-71
2022/10/29 00:13:53;;;;;;;16.88;6.43;;;12.90;99.90;;;;;;5077091;28;20048;-71
2022/10/29 00:16:25;;;;;;;13.55;5.00;;;12.90;99.90;;;;;;5076904;28;20025;-71
2022/10/29 00:18:54;;;;;;;14.82;5.45;;;13.00;99.90;;;;;;5077186;28;20017;-71
2022/10/29 00:21:24;;;;;;;19.83;5.45;;;13.00;99.90;;;;;;5076803;28;20021;-71
2022/10/29 00:23:52;;;;;;;17.55;6.53;;;13.10;99.90;;;;;;5076953;28;20491;-71
2022/10/29 00:26:21;;;;;;;14.75;5.13;;;13.10;99.90;;;;;;5077340;28;20107;-71
2022/10/29 00:28:56;;;;;;;20.95;6.85;;;13.10;99.90;;;;;;5076755;28;20417;-71
2022/10/29 00:31:24;;;;;;;17.70;4.78;;;13.10;99.90;;;;;;5076892;28;20104;-71
2022/10/29 00:33:53;;;;;;;15.15;6.22;;;13.10;99.90;;;;;;5076882;28;20070;-71
2022/10/29 00:36:23;;;;;;;12.07;6.28;;;13.00;99.90;;;;;;5077198;28;20051;-71
2022/10/29 00:38:50;;;;;;;9.68;5.63;;;13.00;99.90;;;;;;5076870;28;20044;-71
2022/10/29 00:41:22;;;;;;;17.48;5.97;;;13.00;99.90;;;;;;5076620;28;20052;-71
2022/10/29 00:43:52;;;;;;;20.35;6.22;;;12.90;99.90;;;;;;5076747;28;20074;-71
2022/10/29 00:46:32;;;;;;;14.82;5.30;;;12.90;99.90;;;;;;5076556;28;20363;-71
2022/10/29 00:49:00;;;;;;;20.67;5.38;;;12.80;99.90;;;;;;5076531;28;20021;-71
2022/10/29 00:51:29;;;;;;;15.82;5.10;;;12.80;99.90;;;;;;5076399;28;20025;-71
2022/10/29 00:54:06;;;;;;;20.35;6.55;;;12.70;99.90;;;;;;5077189;28;20023;-71
2022/10/29 00:56:38;;;;;;;20.98;5.32;;;12.70;99.90;;;;;;5076543;28;20455;-71
2022/10/29 00:59:08;;;;;;;19.27;6.20;;;12.70;99.90;;;;;;5076348;28;20039;-71
2022/10/29 01:01:36;;;;;;;19.17;6.20;;;12.70;99.90;;;;;;5077084;28;20107;-71
2022/10/29 01:04:05;;;;;;;16.35;5.57;;;12.60;99.90;;;;;;5076332;28;20021;-71
2022/10/29 01:06:32;;;;;;;18.67;5.97;;;12.60;99.90;;;;;;5076889;28;20430;-71
2022/10/29 01:09:00;;;;;;;19.05;5.78;;;12.60;99.90;;;;;;5076879;28;20067;-71
2022/10/29 01:12:07;;;;;;;15.27;6.15;;;12.60;99.90;;;;;;5076166;28;20028;-71
2022/10/29 01:15:10;;;;;;;18.05;5.47;;;12.60;99.90;;;;;;5076490;28;20017;-71
2022/10/29 01:18:09;;;;;;;22.55;6.13;;;12.60;99.90;;;;;;5018778;28;20038;-71
2022/10/29 01:21:13;;;;;;;17.20;6.25;;;12.60;99.90;;;;;;5062448;28;20051;-71
2022/10/29 01:24:08;;;;;;;22.20;6.43;;;12.60;99.90;;;;;;5080337;28;20024;-71
2022/10/29 01:27:11;;;;;;;13.32;5.10;;;12.60;99.90;;;;;;5080111;28;20320;-71
2022/10/29 01:30:00;;;;;;;19.88;5.55;;;12.50;99.90;;;;;;5079968;28;20020;-71
2022/10/29 01:32:53;;;;;;;18.33;5.10;;;12.50;99.90;;;;;;5062371;28;20024;-71
2022/10/29 01:35:53;;;;;;;15.88;5.20;;;12.40;99.90;;;;;;5079927;28;20021;-71
2022/10/29 01:38:42;;;;;;;18.48;5.55;;;12.40;99.90;;;;;;5068648;28;20082;-71
2022/10/29 01:41:26;;;;;;;13.85;4.72;;;12.40;99.90;;;;;;5062008;28;20024;-71
2022/10/29 01:44:02;;;;;;;13.98;5.35;;;12.30;99.90;;;;;;5079953;28;20028;-71
2022/10/29 01:46:43;;;;;;;19.52;5.70;;;12.30;99.90;;;;;;5080301;28;20021;-71
2022/10/29 01:49:20;;;;;;;21.55;5.85;;;12.20;99.90;;;;;;5079666;28;20032;-71
2022/10/29 01:51:51;;;;;;;16.30;5.47;;;12.20;99.90;;;;;;5080004;28;20435;-71
2022/10/29 01:54:18;;;;;;;21.48;6.10;;;12.20;99.90;;;;;;5079590;28;20024;-71
2022/10/29 01:56:55;;;;;;;18.42;5.53;;;12.20;99.90;;;;;;5058262;28;20056;-71
2022/10/29 01:59:29;;;;;;;20.90;6.72;;;12.20;99.90;;;;;;5059676;28;20017;-71
2022/10/29 02:02:25;;;;;;;12.05;4.90;;;12.20;99.90;;;;;;5059689;28;20511;-71
2022/10/29 02:05:25;;;;;;;14.45;4.85;;;12.20;99.90;;;;;;5059389;28;20424;-71
2022/10/29 02:08:00;;;;;;;21.77;6.78;;;12.20;99.90;;;;;;5059610;28;20028;-71
2022/10/29 02:10:51;;;;;;;15.10;5.10;;;12.30;99.90;;;;;;5059182;28;20021;-71
2022/10/29 02:13:26;;;;;;;13.30;5.75;;;12.30;99.90;;;;;;5059791;28;20063;-71
2022/10/29 02:15:56;;;;;;;16.30;5.13;;;12.30;99.90;;;;;;5059088;28;20021;-71
2022/10/29 02:18:24;;;;;;;11.90;5.25;;;12.30;99.90;;;;;;5059846;28;20301;-71
2022/10/29 02:20:51;;;;;;;19.55;5.25;;;12.30;99.90;;;;;;5059002;28;20155;-71
2022/10/29 02:23:18;;;;;;;16.30;4.60;;;12.30;99.90;;;;;;5059355;28;20028;-71
2022/10/29 02:25:45;;;;;;;17.45;5.95;;;12.20;99.90;;;;;;5058965;28;20021;-71
2022/10/29 02:28:13;;;;;;;17.23;5.63;;;12.20;99.90;;;;;;5059100;28;20021;-71
2022/10/29 02:30:40;;;;;;;20.25;4.78;;;12.10;99.90;;;;;;5058686;28;20025;-71
2022/10/29 02:33:09;;;;;;;22.33;5.65;;;12.10;99.90;;;;;;5059409;28;20024;-71
2022/10/29 02:35:36;;;;;;;20.02;5.60;;;12.00;99.90;;;;;;5057715;28;20025;-71
2022/10/29 02:38:03;;;;;;;19.42;6.32;;;12.00;99.90;;;;;;5058836;28;20320;-71
2022/10/29 02:40:31;;;;;;;14.38;5.60;;;11.90;99.90;;;;;;5058690;28;20021;-71
2022/10/29 02:42:58;;;;;;;15.48;5.75;;;11.90;99.90;;;;;;5058683;28;20032;-71
2022/10/29 02:45:25;;;;;;;16.80;5.97;;;11.80;99.90;;;;;;5059072;28;20025;-71
2022/10/29 02:47:52;;;;;;;19.40;6.82;;;11.80;99.90;;;;;;5058739;28;20082;-71
2022/10/29 02:50:20;;;;;;;14.75;6.07;;;11.80;99.90;;;;;;5058994;28;20048;-71
2022/10/29 02:52:47;;;;;;;14.05;5.30;;;11.80;99.90;;;;;;5058497;28;20317;-71
2022/10/29 02:55:15;;;;;;;16.52;6.47;;;11.80;99.90;;;;;;5057362;28;20052;-71
2022/10/29 02:57:45;;;;;;;15.15;5.13;;;11.80;99.90;;;;;;5077501;28;20048;-71
2022/10/29 03:00:13;;;;;;;11.05;5.22;;;11.80;99.90;;;;;;5078243;28;20023;-71
2022/10/29 03:02:41;;;;;;;21.02;4.63;;;11.80;99.90;;;;;;5060586;28;20133;-71
2022/10/29 03:05:08;;;;;;;20.27;5.30;;;11.80;99.90;;;;;;5060613;28;20017;-71
2022/10/29 03:07:36;;;;;;;16.13;5.88;;;11.80;99.90;;;;;;5077304;28;20111;-71
2022/10/29 03:10:07;;;;;;;18.95;6.05;;;11.80;99.90;;;;;;5078067;28;20324;-71
2022/10/29 03:12:35;;;;;;;12.10;5.05;;;11.70;99.90;;;;;;5078690;28;20173;-71
2022/10/29 03:15:02;;;;;;;13.77;6.00;;;11.80;99.90;;;;;;5078269;28;20024;-71
2022/10/29 03:17:30;;;;;;;17.52;5.38;;;11.80;99.90;;;;;;5078175;28;20481;-71
2022/10/29 03:19:57;;;;;;;18.63;6.72;;;11.80;99.90;;;;;;5078500;28;20021;-71
2022/10/29 03:22:24;;;;;;;14.93;5.57;;;11.80;99.90;;;;;;5078191;28;20314;-71
2022/10/29 03:24:51;;;;;;;17.55;5.72;;;11.80;99.90;;;;;;5060068;28;20082;-71
2022/10/29 03:27:19;;;;;;;14.63;5.75;;;11.80;99.90;;;;;;5077947;28;20043;-71
2022/10/29 03:29:46;;;;;;;20.95;6.13;;;11.80;99.90;;;;;;5077605;28;20028;-71
2022/10/29 03:32:13;;;;;;;13.95;5.43;;;11.80;99.90;;;;;;5077643;28;20048;-71
2022/10/29 03:34:41;;;;;;;19.17;5.75;;;11.90;99.90;;;;;;5077672;28;20020;-71
2022/10/29 03:37:08;;;;;;;20.08;6.18;;;11.80;99.90;;;;;;5077306;28;20023;-71
2022/10/29 03:39:35;;;;;;;20.33;6.53;;;11.80;99.90;;;;;;5077293;28;20070;-71
2022/10/29 03:42:03;;;;;;;16.35;6.95;;;11.80;99.90;;;;;;5077543;28;20024;-71
2022/10/29 03:44:30;;;;;;;14.73;5.45;;;11.80;99.90;;;;;;5078013;28;20359;-71
2022/10/29 03:46:58;;;;;;;13.55;5.50;;;11.80;99.90;;;;;;5077564;28;20025;-71
2022/10/29 03:49:25;;;;;;;19.08;6.72;;;11.80;99.90;;;;;;5078439;28;20031;-71
2022/10/29 03:51:53;;;;;;;19.95;6.53;;;11.80;99.90;;;;;;5077823;28;20070;-71
2022/10/29 03:54:20;;;;;;;16.17;7.88;;;11.80;99.90;;;;;;5077815;28;20027;-71
2022/10/29 03:56:47;;;;;;;18.13;7.53;;;11.70;99.90;;;;;;5077419;28;20037;-71
2022/10/29 03:59:14;;;;;;;22.65;8.18;;;11.80;99.90;;;;;;5077367;28;20105;-71
2022/10/29 04:01:42;;;;;;;23.55;9.38;;;11.80;99.90;;;;;;5077736;28;20036;-71
2022/10/29 04:04:10;;;;;;;25.30;8.88;;;11.80;99.90;;;;;;5077331;28;20020;-71
2022/10/29 04:06:40;;;;;;;23.05;8.05;;;11.80;99.90;;;;;;5077149;28;20028;-71
2022/10/29 04:09:07;;;;;;;24.17;9.45;;;11.80;99.90;;;;;;5077554;28;20412;-71
2022/10/29 04:11:34;;;;;;;24.08;8.20;;;11.80;99.90;;;;;;5077130;28;20025;-71
2022/10/29 04:14:02;;;;;;;19.73;7.15;;;11.80;99.90;;;;;;5076866;28;20078;-71
2022/10/29 04:16:29;;;;;;;24.88;8.60;;;11.80;99.90;;;;;;5076928;28;20027;-71
2022/10/29 04:18:56;;;;;;;22.77;7.00;;;11.80;99.90;;;;;;5076877;28;20017;-71
2022/10/29 04:21:23;;;;;;;19.73;7.32;;;11.70;99.90;;;;;;5059118;28;20475;-71
2022/10/29 04:23:51;;;;;;;19.23;8.20;;;11.70;99.90;;;;;;5076819;28;20108;-71
2022/10/29 04:26:18;;;;;;;22.65;7.78;;;11.70;99.90;;;;;;5058994;28;20086;-71
2022/10/29 04:28:49;;;;;;;22.63;8.43;;;11.70;99.90;;;;;;5059234;28;20439;-71
2022/10/29 04:31:17;;;;;;;16.85;8.68;;;11.70;99.90;;;;;;5076765;28;20033;-71
2022/10/29 04:33:45;;;;;;;23.05;8.23;;;11.60;99.90;;;;;;5077403;28;20357;-71
2022/10/29 04:36:12;;;;;;;18.95;6.75;;;11.60;99.90;;;;;;5077206;28;20025;-71
2022/10/29 04:38:39;;;;;;;19.17;7.00;;;11.60;99.90;;;;;;5059565;28;20305;-71
2022/10/29 04:41:06;;;;;;;18.70;6.88;;;11.50;99.90;;;;;;5076624;28;20020;-71
2022/10/29 04:43:33;;;;;;;16.00;7.30;;;11.50;99.90;;;;;;5076604;28;20301;-71
2022/10/29 04:46:01;;;;;;;19.23;7.68;;;11.50;99.90;;;;;;5076785;28;20103;-71
2022/10/29 04:48:28;;;;;;;21.48;8.70;;;11.50;99.90;;;;;;5077036;28;20025;-71
2022/10/29 04:50:56;;;;;;;18.02;8.00;;;11.50;99.90;;;;;;5076916;28;20024;-71
2022/10/29 04:53:24;;;;;;;20.70;7.35;;;11.50;99.90;;;;;;5076499;28;20049;-71
2022/10/29 04:55:51;;;;;;;17.08;6.82;;;11.50;99.90;;;;;;5076684;28;20032;-71
2022/10/29 04:58:19;;;;;;;18.60;7.28;;;11.40;99.90;;;;;;5076610;28;20024;-71
2022/10/29 05:00:46;;;;;;;19.60;7.22;;;11.40;99.90;;;;;;5076334;28;20021;-71
2022/10/29 05:03:14;;;;;;;20.60;7.50;;;11.40;99.90;;;;;;5075311;28;20021;-71
2022/10/29 05:05:41;;;;;;;14.60;7.95;;;11.30;99.90;;;;;;5076339;28;20033;-71
2022/10/29 05:08:10;;;;;;;21.00;8.27;;;11.30;99.90;;;;;;5077028;28;20074;-71
2022/10/29 05:10:39;;;;;;;20.83;9.20;;;11.30;99.90;;;;;;5076132;28;20025;-71
2022/10/29 05:13:10;;;;;;;20.77;8.70;;;11.30;99.90;;;;;;5076863;28;20020;-71
2022/10/29 05:15:38;;;;;;;25.08;8.63;;;11.30;99.90;;;;;;5076751;28;20071;-71
2022/10/29 05:18:06;;;;;;;17.63;8.63;;;11.30;99.90;;;;;;5076363;28;20039;-71
2022/10/29 05:20:34;;;;;;;23.33;8.15;;;11.30;99.90;;;;;;5077329;28;20021;-71
2022/10/29 05:23:07;;;;;;;22.25;8.68;;;11.40;99.90;;;;;;5076164;28;20077;-71
2022/10/29 05:25:36;;;;;;;20.90;8.93;;;11.40;99.90;;;;;;5076172;28;20024;-71
2022/10/29 05:28:17;;;;;;;18.58;8.70;;;11.40;99.90;;;;;;5076216;28;20374;-71
2022/10/29 05:30:46;;;;;;;21.88;7.72;;;11.50;99.90;;;;;;5076221;28;20028;-71
2022/10/29 05:33:19;;;;;;;23.08;8.43;;;11.50;99.90;;;;;;5076068;28;20044;-71
2022/10/29 05:35:48;;;;;;;16.65;8.52;;;11.50;99.90;;;;;;5076358;28;20024;-71
2022/10/29 05:38:16;;;;;;;17.80;6.82;;;11.50;99.90;;;;;;5076260;28;20416;-71
2022/10/29 05:40:44;;;;;;;19.55;7.90;;;11.40;99.90;;;;;;5076570;28;20103;-71
2022/10/29 05:43:12;;;;;;;29.73;8.93;;;11.50;99.90;;;;;;5076042;28;20028;-71
2022/10/29 05:45:40;;;;;;;18.15;8.07;;;11.50;99.90;;;;;;5076066;28;20028;-71
2022/10/29 05:48:09;;;;;;;19.70;7.85;;;11.40;99.90;;;;;;5076708;28;20043;-71
2022/10/29 05:50:36;;;;;;;21.90;8.52;;;11.50;99.90;;;;;;5076102;28;20339;-71
2022/10/29 05:53:06;;;;;;;25.20;10.00;;;11.50;99.90;;;;;;5075893;28;20025;-72
2022/10/29 05:55:34;;;;;;;23.17;8.68;;;11.50;99.90;;;;;;5075548;28;20095;-72
2022/10/29 05:58:03;;;;;;;21.55;8.40;;;11.50;99.90;;;;;;5076580;28;20250;-72
2022/10/29 06:00:36;;;;;;;33.92;11.63;;;11.40;99.90;;;;;;5076035;28;20424;-72
2022/10/29 06:03:12;;;;;;;21.60;9.27;;;11.40;99.90;;;;;;5079310;28;20029;-72
2022/10/29 06:05:39;;;;;;;23.20;9.18;;;11.40;99.90;;;;;;5079606;28;20412;-72
2022/10/29 06:08:07;;;;;;;26.02;9.48;;;11.40;99.90;;;;;;5079500;28;20017;-72
2022/10/29 06:10:35;;;;;;;19.95;7.28;;;11.30;99.90;;;;;;5079468;28;20099;-71
2022/10/29 06:13:10;;;;;;;18.02;8.70;;;11.30;99.90;;;;;;5079234;28;20020;-72
2022/10/29 06:15:37;;;;;;;22.95;8.80;;;11.30;99.90;;;;;;5061387;28;20116;-72
2022/10/29 06:18:04;;;;;;;19.58;8.40;;;11.30;99.90;;;;;;5079354;28;20048;-72
2022/10/29 06:20:32;;;;;;;30.23;8.75;;;11.30;99.90;;;;;;5079171;28;20063;-72
2022/10/29 06:22:59;;;;;;;20.33;8.25;;;11.30;99.90;;;;;;5079058;28;20020;-72
2022/10/29 06:25:27;;;;;;;20.77;9.18;;;11.30;99.90;;;;;;5078995;28;20069;-72
2022/10/29 06:28:03;;;;;;;19.52;8.95;;;11.30;99.90;;;;;;5061385;28;20051;-72
2022/10/29 06:30:31;;;;;;;21.85;9.32;;;11.30;99.90;;;;;;5079086;28;20016;-72
2022/10/29 06:33:01;;;;;;;28.60;9.77;;;11.30;99.90;;;;;;5061196;28;20048;-72
2022/10/29 06:35:28;;;;;;;23.92;9.80;;;11.40;99.90;;;;;;5079149;28;20384;-72
2022/10/29 06:37:56;;;;;;;29.33;9.98;;;11.40;99.90;;;;;;5061472;28;20025;-72
2022/10/29 06:40:23;;;;;;;20.35;9.00;;;11.40;99.90;;;;;;5078746;28;20420;-72
2022/10/29 06:43:11;;;;;;;22.70;8.20;;;11.40;99.90;;;;;;5079267;28;20400;-72
2022/10/29 06:45:38;;;;;;;23.50;9.07;;;11.40;99.90;;;;;;5078456;28;20024;-71
2022/10/29 06:48:06;;;;;;;21.25;8.68;;;11.50;99.90;;;;;;5079367;28;20052;-73
2022/10/29 06:50:33;;;;;;;22.50;9.68;;;11.40;99.90;;;;;;5079045;28;20085;-73
2022/10/29 06:53:06;;;;;;;20.80;8.45;;;11.50;99.90;;;;;;5060807;28;20021;-73
2022/10/29 06:55:34;;;;;;;17.10;7.95;;;11.50;99.90;;;;;;5078194;28;20027;-73
2022/10/29 06:58:12;;;;;;;15.20;7.35;;;11.50;99.90;;;;;;5078465;28;20423;-73
2022/10/29 07:00:40;;;;;;;25.23;8.07;;;11.50;99.90;;;;;;5078900;28;20404;-74
2022/10/29 07:03:12;;;;;;;18.63;7.57;;;11.50;99.90;;;;;;5078322;28;20375;-75
2022/10/29 07:05:40;;;;;;;17.00;6.78;;;11.50;99.90;;;;;;5078267;28;20074;-72
2022/10/29 07:08:08;;;;;;;18.80;7.22;;;11.50;99.90;;;;;;5078416;28;20108;-74
2022/10/29 07:10:35;;;;;;;22.58;7.85;;;11.50;99.90;;;;;;5078358;28;20416;-74
2022/10/29 07:13:03;;;;;;;16.65;7.05;;;11.50;99.90;;;;;;5078050;28;20066;-74
2022/10/29 07:15:31;;;;;;;15.70;6.78;;;11.50;99.90;;;;;;5078111;28;20016;-74
2022/10/29 07:18:04;;;;;;;18.27;7.53;;;11.50;99.90;;;;;;5060539;28;20021;-74
2022/10/29 07:20:33;;;;;;;18.85;7.70;;;11.60;99.90;;;;;;5060240;28;20024;-74
2022/10/29 07:23:01;;;;;;;16.55;6.60;;;11.60;99.90;;;;;;5077972;28;20044;-73
2022/10/29 07:25:29;;;;;;;24.05;8.55;;;11.70;99.90;;;;;;5077867;28;20055;-74
2022/10/29 07:28:04;;;;;;;15.18;7.38;;;11.80;99.90;;;;;;5078113;28;20021;-74
2022/10/29 07:30:32;;;;;;;32.70;11.02;;;11.90;99.90;;;;;;5077627;28;20021;-73
2022/10/29 07:33:00;;;;;;;36.00;11.70;;;11.90;99.90;;;;;;5077746;28;20016;-73
2022/10/29 07:35:27;;;;;;;35.22;12.07;;;12.00;99.90;;;;;;5077654;28;20443;-73
2022/10/29 07:38:05;;;;;;;35.70;12.30;;;12.10;99.90;;;;;;5078348;28;20017;-73
2022/10/29 07:40:32;;;;;;;32.63;14.32;;;12.30;99.90;;;;;;5059824;28;20023;-73
2022/10/29 07:43:00;;;;;;;25.05;10.57;;;12.30;99.90;;;;;;5043413;28;20065;-73
2022/10/29 07:45:27;;;;;;;26.38;9.90;;;12.40;99.90;;;;;;5059639;28;20106;-73
2022/10/29 07:48:03;;;;;;;17.52;8.35;;;12.50;99.90;;;;;;5076311;28;20417;-73
2022/10/29 07:50:31;;;;;;;17.90;7.35;;;12.60;99.90;;;;;;5077342;28;20052;-72
2022/10/29 07:53:02;;;;;;;20.48;6.88;;;12.70;99.90;;;;;;5077340;28;20021;-72
2022/10/29 07:55:30;;;;;;;21.08;6.85;;;12.80;99.90;;;;;;5077302;28;20044;-73
2022/10/29 07:58:00;;;;;;;18.58;7.47;;;12.80;99.90;;;;;;5077562;28;20032;-73
2022/10/29 08:00:33;;;;;;;20.30;8.57;;;12.90;99.90;;;;;;5077073;28;20089;-72
2022/10/29 08:03:00;;;;;;;25.42;9.90;;;12.90;99.90;;;;;;5077336;28;20025;-72
2022/10/29 08:05:29;;;;;;;17.20;8.68;;;13.00;99.90;;;;;;5059809;28;20100;-72
2022/10/29 08:07:58;;;;;;;18.83;7.50;;;13.10;99.90;;;;;;5077113;28;20095;-72
2022/10/29 08:10:26;;;;;;;15.85;8.00;;;13.20;99.90;;;;;;5077450;28;20012;-74
2022/10/29 08:12:56;;;;;;;25.50;8.10;;;13.20;99.90;;;;;;5077103;28;20020;-73
2022/10/29 08:15:25;;;;;;;22.23;7.32;;;13.30;99.90;;;;;;5076815;28;20017;-74
2022/10/29 08:17:52;;;;;;;22.65;8.70;;;13.30;99.90;;;;;;5076905;28;20104;-74
2022/10/29 08:20:21;;;;;;;22.10;9.48;;;13.40;99.90;;;;;;5077130;28;20032;-74
2022/10/29 08:22:48;;;;;;;27.92;8.52;;;13.40;99.90;;;;;;5076971;28;20028;-74
2022/10/29 08:25:16;;;;;;;15.77;8.30;;;13.50;99.90;;;;;;5076342;28;20417;-71
2022/10/29 08:27:44;;;;;;;18.23;8.70;;;13.60;99.90;;;;;;5077297;28;20024;-75
2022/10/29 08:30:13;;;;;;;15.07;8.90;;;13.70;99.90;;;;;;5076635;28;20195;-73
2022/10/29 08:32:46;;;;;;;27.92;12.98;;;13.80;99.90;;;;;;5059230;28;20025;-73
2022/10/29 08:35:14;;;;;;;19.88;12.30;;;13.90;99.90;;;;;;5077196;28;20028;-73
2022/10/29 08:37:45;;;;;;;17.25;7.45;;;14.10;99.90;;;;;;5076964;28;20059;-72
2022/10/29 08:40:33;;;;;;;25.17;8.38;;;14.20;99.90;;;;;;5077152;28;20396;-72
2022/10/29 08:43:36;;;;;;;17.05;5.72;;;14.30;99.90;;;;;;5077313;28;20444;-72
2022/10/29 08:46:03;;;;;;;13.90;6.13;;;14.50;99.90;;;;;;5076508;28;20025;-72
2022/10/29 08:48:34;;;;;;;14.80;7.25;;;14.70;99.90;;;;;;5075509;28;20111;-72
2022/10/29 08:51:22;;;;;;;16.02;5.95;;;14.80;99.90;;;;;;5076358;28;20201;-72
2022/10/29 08:53:52;;;;;;;17.65;5.75;;;15.00;99.90;;;;;;5076709;28;20435;-72
2022/10/29 08:56:30;;;;;;;23.05;5.95;;;15.20;99.90;;;;;;5076139;28;20368;-72
2022/10/29 08:58:58;;;;;;;14.88;5.05;;;15.30;99.90;;;;;;5077154;28;20393;-72
2022/10/29 09:01:25;;;;;;;16.20;4.88;;;15.50;99.90;;;;;;5076956;28;20029;-72
2022/10/29 09:03:53;;;;;;;15.30;5.30;;;15.60;99.90;;;;;;5077097;28;20498;-72
2022/10/29 09:06:34;;;;;;;17.05;5.72;;;15.70;99.90;;;;;;5076646;28;20436;-72
2022/10/29 09:09:36;;;;;;;20.75;5.72;;;15.80;99.90;;;;;;5058540;28;20031;-72
2022/10/29 09:12:29;;;;;;;14.93;5.07;;;15.80;99.90;;;;;;5076176;28;20494;-72
2022/10/29 09:15:12;;;;;;;16.02;6.00;;;15.90;99.90;;;;;;5058456;28;20132;-72
2022/10/29 09:18:26;;;;;;;22.90;5.60;;;16.00;99.90;;;;;;5076730;28;20044;-72
2022/10/29 09:21:11;;;;;;;20.23;5.75;;;16.00;99.90;;;;;;5076131;28;20503;-72
2022/10/29 09:24:04;;;;;;;15.52;5.10;;;16.00;99.90;;;;;;5076819;28;20036;-72
2022/10/29 09:26:55;;;;;;;13.95;4.82;;;16.00;99.90;;;;;;5076026;28;20515;-72
2022/10/29 09:29:44;;;;;;;14.80;4.93;;;16.10;99.90;;;;;;5075993;28;20082;-72
2022/10/29 09:32:33;;;;;;;17.63;5.35;;;16.20;99.90;;;;;;5076601;28;20162;-72
2022/10/29 09:35:17;;;;;;;11.02;4.70;;;16.20;99.90;;;;;;5076285;28;20139;-72
2022/10/29 09:38:15;;;;;;;19.20;5.00;;;16.30;99.90;;;;;;5080221;28;20024;-72
2022/10/29 09:40:44;;;;;;;18.55;4.88;;;16.40;99.90;;;;;;5062066;28;20021;-72
2022/10/29 09:43:38;;;;;;;17.27;4.50;;;16.50;99.90;;;;;;5079866;28;20020;-72
2022/10/29 09:46:33;;;;;;;10.55;4.55;;;16.60;99.90;;;;;;5079762;28;20099;-72
2022/10/29 09:49:35;;;;;;;12.98;4.43;;;16.80;99.90;;;;;;5080157;28;20028;-72
2022/10/29 09:52:21;;;;;;;15.70;4.80;;;16.90;99.90;;;;;;5080586;28;20104;-72
2022/10/29 09:54:50;;;;;;;16.35;4.50;;;17.00;99.90;;;;;;5079906;28;20055;-72
2022/10/29 09:57:22;;;;;;;16.35;5.03;;;17.20;99.90;;;;;;5079531;28;20047;-72
2022/10/29 09:59:55;;;;;;;14.27;4.75;;;17.30;99.90;;;;;;5079672;28;20052;-72
2022/10/29 10:02:31;;;;;;;12.30;4.65;;;17.50;99.90;;;;;;5079766;28;20354;-72
2022/10/29 10:05:07;;;;;;;11.90;4.68;;;17.60;99.90;;;;;;5061742;28;20032;-72
2022/10/29 10:07:34;;;;;;;;;;;17.80;99.90;;;;;;5079983;28;20028;-72
2022/10/29 10:10:04;;;;;;;15.20;4.38;;;17.90;99.90;;;;;;5079622;28;20308;-72
2022/10/29 10:12:37;;;;;;;17.73;5.47;;;18.10;99.90;;;;;;5079487;28;20028;-72
2022/10/29 10:15:24;;;;;;;12.68;4.57;;;18.30;99.90;;;;;;5079476;28;20027;-72
2022/10/29 10:17:55;;;;;;;13.00;5.57;;;18.50;99.90;;;;;;5079125;28;20021;-72
2022/10/29 10:20:46;;;;;;;17.45;4.97;;;18.80;99.90;;;;;;5079064;28;20027;-72
2022/10/29 10:23:42;;;;;;;16.27;3.90;;;18.90;99.90;;;;;;5078021;28;20025;-72
2022/10/29 10:26:43;;;;;;;15.00;4.22;;;19.20;99.90;;;;;;5074012;28;20062;-73
2022/10/29 10:29:15;;;;;;;16.65;3.92;;;19.30;99.90;;;;;;5079479;28;20039;-72
2022/10/29 10:31:45;;;;;;;15.82;4.32;;;19.40;99.90;;;;;;5079047;28;20028;-72
2022/10/29 10:34:26;;;;;;;19.65;4.82;;;19.50;99.90;;;;;;5079458;28;20424;-72
2022/10/29 10:37:10;;;;;;;12.95;4.45;;;19.60;99.90;;;;;;5078870;28;20016;-72
2022/10/29 10:40:05;;;;;;;12.90;4.30;;;19.60;99.90;;;;;;5079734;28;20024;-73
2022/10/29 10:42:46;;;;;;;16.80;3.60;;;19.70;99.90;;;;;;5060936;28;20332;-72
2022/10/29 10:45:21;;;;;;;24.70;4.72;;;19.70;99.90;;;;;;5078618;28;20020;-73
2022/10/29 10:47:57;;;;;;;24.13;4.85;;;19.70;99.90;;;;;;5078302;28;20443;-72
2022/10/29 10:50:28;;;;;;;;;;;19.70;99.90;;;;;;5078940;28;20050;-72
2022/10/29 10:52:58;;;;;;;16.08;4.53;;;19.70;99.90;;;;;;5078884;28;19931;-72
2022/10/29 10:55:31;;;;;;;17.15;5.57;;;19.70;99.90;;;;;;5078737;28;20029;-72
2022/10/29 10:58:16;;;;;;;17.60;4.05;;;19.70;99.90;;;;;;5058585;28;20037;-72
2022/10/29 11:01:02;;;;;;;15.18;4.35;;;19.70;99.90;;;;;;5058581;28;20432;-72
2022/10/29 11:03:44;;;;;;;17.92;5.10;;;19.80;99.90;;;;;;5058428;28;20032;-72
2022/10/29 11:06:35;;;;;;;11.32;4.20;;;19.80;99.90;;;;;;5058851;28;20049;-73
2022/10/29 11:09:21;;;;;;;12.57;3.78;;;19.90;99.90;;;;;;5058248;28;20072;-73
2022/10/29 11:11:59;;;;;;;11.07;3.72;;;20.00;99.90;;;;;;5058727;28;20021;-72
2022/10/29 11:14:54;;;;;;;12.18;3.65;;;20.20;99.90;;;;;;5058543;28;20013;-72
2022/10/29 11:17:31;;;;;;;12.23;3.90;;;20.40;99.90;;;;;;5058521;28;20017;-72
2022/10/29 11:20:18;;;;;;;14.55;3.75;;;20.50;99.90;;;;;;5057987;28;20025;-72
2022/10/29 11:23:09;;;;;;;10.60;4.80;;;20.60;99.90;;;;;;5056873;28;20029;-72
2022/10/29 11:26:00;;;;;;;13.45;3.78;;;20.60;99.90;;;;;;5058194;28;20335;-71
2022/10/29 11:29:23;;;;;;;12.30;3.50;;;20.70;99.90;;;;;;5058409;28;20029;-74
2022/10/29 11:32:18;;;;;;;18.95;4.05;;;20.80;99.90;;;;;;5048768;28;20064;-71
2022/10/29 11:35:10;;;;;;;9.70;3.78;;;20.80;99.90;;;;;;5057694;28;20021;-71
2022/10/29 11:37:43;;;;;;;10.85;3.10;;;20.70;99.90;;;;;;5057624;28;20100;-71
2022/10/29 11:40:18;;;;;;;11.57;3.42;;;20.70;99.90;;;;;;5057408;28;20048;-71
2022/10/29 11:42:46;;;;;;;16.65;3.05;;;20.70;99.90;;;;;;5057609;28;20035;-71
2022/10/29 11:45:19;;;;;;;12.20;2.95;;;20.70;99.90;;;;;;5057729;28;20032;-71
2022/10/29 11:48:02;;;;;;;10.68;3.22;;;20.70;99.90;;;;;;5057694;28;20328;-71
2022/10/29 11:50:50;;;;;;;12.57;3.63;;;20.70;99.90;;;;;;5057965;28;20028;-71
2022/10/29 11:53:29;;;;;;;10.82;3.60;;;20.70;99.90;;;;;;5057689;28;20021;-71
2022/10/29 11:56:10;;;;;;;9.68;2.80;;;20.80;99.90;;;;;;5061270;28;20033;-71
2022/10/29 11:58:44;;;;;;;12.82;3.95;;;20.70;99.90;;;;;;5076677;28;20098;-71
2022/10/29 12:01:26;;;;;;;20.70;3.67;;;20.70;99.90;;;;;;5077064;28;20039;-71
2022/10/29 12:04:12;;;;;;;13.68;2.95;;;20.60;99.90;;;;;;5060122;28;20041;-71
2022/10/29 12:06:44;;;;;;;13.20;3.58;;;20.50;99.90;;;;;;5077605;28;20412;-71
2022/10/29 12:09:51;;;;;;;14.95;4.15;;;20.50;99.90;;;;;;5077047;28;20036;-71
2022/10/29 12:12:32;;;;;;;9.40;3.55;;;20.50;99.90;;;;;;5077304;28;20027;-71
2022/10/29 12:15:23;;;;;;;10.25;3.28;;;20.60;99.90;;;;;;5076897;28;20317;-71
2022/10/29 12:18:05;;;;;;;9.85;3.15;;;20.60;99.90;;;;;;5077668;28;20364;-71
2022/10/29 12:20:51;;;;;;;8.95;3.28;;;20.70;99.90;;;;;;5076861;28;20070;-71
2022/10/29 12:24:03;;;;;;;15.27;3.53;;;20.70;99.90;;;;;;5076810;28;20032;-71
2022/10/29 12:26:42;;;;;;;9.60;2.70;;;20.70;99.90;;;;;;5076783;28;20050;-71
2022/10/29 12:29:15;;;;;;;11.45;3.40;;;20.80;99.90;;;;;;5077250;28;20134;-71
2022/10/29 12:31:54;;;;;;;10.70;3.65;;;20.80;99.90;;;;;;5076703;28;20115;-71
2022/10/29 12:34:34;;;;;;;15.75;3.05;;;20.90;99.90;;;;;;5076667;28;20336;-71
2022/10/29 12:37:28;;;;;;;9.10;2.70;;;20.90;99.90;;;;;;5076847;28;20020;-71
2022/10/29 12:40:18;;;;;;;12.48;3.17;;;20.90;99.90;;;;;;5076535;28;20051;-71
2022/10/29 12:42:48;;;;;;;16.60;3.75;;;21.00;99.90;;;;;;5076653;28;20031;-71
2022/10/29 12:45:27;;;;;;;11.73;3.70;;;21.00;99.90;;;;;;5076468;28;20024;-71
2022/10/29 12:48:15;;;;;;;12.40;3.67;;;21.00;99.90;;;;;;5077246;28;20028;-71
2022/10/29 12:50:58;;;;;;;12.75;3.42;;;21.10;99.90;;;;;;5076964;28;20414;-71
2022/10/29 12:54:03;;;;;;;14.65;3.60;;;21.10;99.90;;;;;;5076791;28;20017;-72
2022/10/29 12:56:32;;;;;;;13.50;3.58;;;21.10;99.90;;;;;;5076242;28;20045;-72
2022/10/29 12:59:33;;;;;;;11.95;4.03;;;21.00;99.90;;;;;;5076890;28;20079;-72
2022/10/29 13:02:25;;;;;;;16.48;5.25;;;20.90;99.90;;;;;;5076494;28;20049;-72
2022/10/29 13:05:08;;;;;;;12.10;4.22;;;20.90;99.90;;;;;;5076289;28;20309;-72
2022/10/29 13:07:58;;;;;;;17.98;5.45;;;20.80;99.90;;;;;;5076941;28;20021;-72
2022/10/29 13:10:34;;;;;;;11.13;3.45;;;20.90;99.90;;;;;;5077958;28;20083;-72
2022/10/29 13:13:36;;;;;;;12.35;3.83;;;20.90;99.90;;;;;;5081199;28;20029;-72
2022/10/29 13:16:13;;;;;;;13.05;3.55;;;20.90;99.90;;;;;;5080337;28;20324;-72
2022/10/29 13:19:23;;;;;;;17.27;4.90;;;21.00;99.90;;;;;;5080949;28;20059;-72